createdAt,value
2019-05-01T00:00:33.445Z,9.81
2019-05-01T00:03:21.606Z,9.84
2019-05-01T00:05:55.069Z,9.85
2019-05-01T00:08:24.018Z,9.86
2019-05-01T00:10:53.083Z,9.83
2019-05-01T00:13:22.145Z,9.78
2019-05-01T00:15:51.732Z,9.75
2019-05-01T00:18:20.923Z,9.75
2019-05-01T00:20:50.114Z,9.76
2019-05-01T00:23:19.176Z,9.79
2019-05-01T00:25:48.559Z,9.79
2019-05-01T00:28:18.800Z,9.81
2019-05-01T00:30:47.784Z,9.79
2019-05-01T00:33:16.866Z,9.81
2019-05-01T00:35:46.365Z,9.81
2019-05-01T00:38:15.514Z,9.84
2019-05-01T00:40:44.553Z,9.82
2019-05-01T00:43:14.028Z,9.78
2019-05-01T00:45:44.197Z,9.79
2019-05-01T00:48:13.475Z,9.82
2019-05-01T00:54:16.627Z,9.79
2019-05-01T00:57:11.324Z,9.77
2019-05-01T00:59:52.514Z,9.76
2019-05-01T01:02:30.957Z,9.71
2019-05-01T01:05:00.109Z,9.69
2019-05-01T01:07:29.327Z,9.68
2019-05-01T01:09:58.444Z,9.64
2019-05-01T01:12:27.805Z,9.66
2019-05-01T01:14:57.344Z,9.64
2019-05-01T01:17:26.380Z,9.62
2019-05-01T01:19:55.682Z,9.61
2019-05-01T01:22:25.141Z,9.64
2019-05-01T01:24:54.575Z,9.66
2019-05-01T01:27:24.594Z,9.65
2019-05-01T01:29:54.122Z,9.63
2019-05-01T01:32:23.772Z,9.62
2019-05-01T01:34:53.227Z,9.60
2019-05-01T01:37:22.734Z,9.59
2019-05-01T01:39:52.014Z,9.54
2019-05-01T01:42:21.768Z,9.55
2019-05-01T01:45:00.109Z,9.53
2019-05-01T01:47:29.435Z,9.56
2019-05-01T01:50:01.693Z,9.55
2019-05-01T01:52:31.278Z,9.57
2019-05-01T01:55:00.592Z,9.60
2019-05-01T01:57:30.513Z,9.58
2019-05-01T01:59:59.973Z,9.60
2019-05-01T02:02:38.522Z,9.60
2019-05-01T02:05:16.504Z,9.61
2019-05-01T02:07:45.952Z,9.63
2019-05-01T02:10:15.585Z,9.66
2019-05-01T02:12:44.944Z,9.65
2019-05-01T02:15:15.253Z,9.65
2019-05-01T02:17:44.500Z,9.65
2019-05-01T02:20:13.916Z,9.63
2019-05-01T02:22:43.577Z,9.62
2019-05-01T02:25:13.689Z,9.60
2019-05-01T02:27:51.567Z,9.63
2019-05-01T02:30:22.791Z,9.63
2019-05-01T02:32:53.603Z,9.62
2019-05-01T02:35:25.527Z,9.62
2019-05-01T02:37:56.153Z,9.61
2019-05-01T02:40:58.129Z,9.60
2019-05-01T02:43:30.856Z,9.62
2019-05-01T02:46:03.182Z,9.63
2019-05-01T02:48:38.417Z,9.63
2019-05-01T02:51:08.842Z,9.62
2019-05-01T02:53:41.214Z,9.61
2019-05-01T02:56:18.210Z,9.61
2019-05-01T02:58:50.437Z,9.58
2019-05-01T03:01:20.646Z,9.59
2019-05-01T03:03:53.585Z,9.60
2019-05-01T03:06:25.062Z,9.61
2019-05-01T03:08:56.872Z,9.59
2019-05-01T03:11:26.610Z,9.57
2019-05-01T03:13:59.228Z,9.59
2019-05-01T03:16:35.368Z,9.60
2019-05-01T03:19:09.333Z,9.57
2019-05-01T03:21:59.518Z,9.56
2019-05-01T03:24:29.451Z,9.55
2019-05-01T03:27:04.554Z,9.59
2019-05-01T03:29:34.327Z,9.62
2019-05-01T03:32:16.757Z,9.59
2019-05-01T03:34:34.963Z,9.59
2019-05-01T03:37:06.976Z,9.58
2019-05-01T03:39:36.730Z,9.57
2019-05-01T03:42:07.224Z,9.58
2019-05-01T03:44:37.653Z,9.58
2019-05-01T03:47:08.334Z,9.59
2019-05-01T03:49:37.712Z,9.60
2019-05-01T03:52:07.218Z,9.61
2019-05-01T03:54:36.561Z,9.63
2019-05-01T03:57:06.066Z,9.61
2019-05-01T03:59:37.521Z,9.61
2019-05-01T04:02:33.407Z,9.59
2019-05-01T04:05:01.349Z,9.58
2019-05-01T04:07:36.287Z,9.60
2019-05-01T04:10:05.002Z,9.60
2019-05-01T04:12:34.184Z,9.61
2019-05-01T04:15:03.480Z,9.59
2019-05-01T04:17:42.735Z,9.57
2019-05-01T04:20:14.536Z,9.55
2019-05-01T04:22:45.691Z,9.59
2019-05-01T04:25:18.934Z,9.59
2019-05-01T04:27:53.075Z,9.58
2019-05-01T04:30:32.250Z,9.59
2019-05-01T04:33:06.721Z,9.58
2019-05-01T04:35:53.466Z,9.57
2019-05-01T04:38:30.363Z,9.56
2019-05-01T04:41:02.679Z,9.56
2019-05-01T04:43:34.050Z,9.56
2019-05-01T04:46:06.038Z,9.53
2019-05-01T04:48:38.826Z,9.54
2019-05-01T04:51:08.259Z,9.55
2019-05-01T04:53:38.373Z,9.53
2019-05-01T04:56:08.994Z,9.51
2019-05-01T04:58:38.515Z,9.50
2019-05-01T05:01:08.241Z,9.52
2019-05-01T05:03:40.461Z,9.51
2019-05-01T05:06:11.854Z,9.54
2019-05-01T05:08:41.665Z,9.53
2019-05-01T05:11:16.740Z,9.52
2019-05-01T05:14:05.997Z,9.54
2019-05-01T05:16:54.347Z,9.55
2019-05-01T05:19:31.909Z,9.56
2019-05-01T05:22:05.092Z,9.56
2019-05-01T05:24:34.905Z,9.53
2019-05-01T05:27:05.146Z,9.53
2019-05-01T05:29:36.943Z,9.55
2019-05-01T05:32:13.896Z,9.55
2019-05-01T05:34:45.639Z,9.59
2019-05-01T05:37:21.892Z,9.60
2019-05-01T05:39:53.988Z,9.59
2019-05-01T05:42:27.211Z,9.61
2019-05-01T05:44:57.093Z,9.64
2019-05-01T05:47:26.716Z,9.66
2019-05-01T05:49:57.121Z,9.66
2019-05-01T05:52:49.053Z,9.70
2019-05-01T05:55:29.308Z,9.73
2019-05-01T05:58:18.808Z,9.73
2019-05-01T06:01:08.355Z,9.77
2019-05-01T06:03:59.979Z,9.80
2019-05-01T06:07:09.465Z,9.78
2019-05-01T06:09:48.460Z,9.77
2019-05-01T06:12:41.831Z,9.79
2019-05-01T06:15:32.373Z,9.82
2019-05-01T06:18:14.000Z,9.84
2019-05-01T06:21:09.054Z,9.85
2019-05-01T06:23:57.722Z,9.86
2019-05-01T06:26:32.098Z,9.86
2019-05-01T06:29:02.166Z,9.87
2019-05-01T06:31:32.130Z,9.89
2019-05-01T06:34:02.181Z,9.89
2019-05-01T06:36:34.987Z,9.91
2019-05-01T06:39:11.837Z,9.92
2019-05-01T06:41:44.224Z,9.92
2019-05-01T06:44:33.500Z,9.93
2019-05-01T06:47:20.842Z,9.93
2019-05-01T06:50:05.774Z,9.88
2019-05-01T06:52:34.857Z,9.92
2019-05-01T06:55:04.130Z,9.92
2019-05-01T06:57:38.443Z,9.94
2019-05-01T07:00:09.323Z,9.95
2019-05-01T07:02:38.929Z,9.94
2019-05-01T07:05:14.437Z,9.92
2019-05-01T07:07:43.132Z,9.91
2019-05-01T07:10:11.157Z,9.90
2019-05-01T07:12:41.004Z,9.89
2019-05-01T07:15:10.571Z,9.88
2019-05-01T07:17:43.807Z,9.89
2019-05-01T07:20:36.032Z,9.88
2019-05-01T07:23:06.263Z,9.89
2019-05-01T07:25:39.358Z,9.89
2019-05-01T07:28:06.829Z,9.87
2019-05-01T07:30:41.669Z,9.84
2019-05-01T07:33:11.910Z,9.85
2019-05-01T07:35:43.106Z,9.81
2019-05-01T07:38:12.540Z,9.87
2019-05-01T07:40:42.107Z,9.93
2019-05-01T07:43:23.892Z,10.00
2019-05-01T07:46:13.786Z,10.06
2019-05-01T07:48:43.610Z,10.10
2019-05-01T07:51:12.989Z,10.15
2019-05-01T07:53:42.805Z,10.13
2019-05-01T07:56:12.593Z,10.10
2019-05-01T07:58:42.181Z,10.12
2019-05-01T08:01:22.060Z,10.09
2019-05-01T08:03:51.404Z,10.11
2019-05-01T08:06:22.771Z,10.05
2019-05-01T08:08:56.027Z,9.98
2019-05-01T08:11:25.696Z,9.99
2019-05-01T08:14:07.047Z,9.85
2019-05-01T08:16:26.612Z,10.01
2019-05-01T08:19:04.085Z,9.99
2019-05-01T08:22:05.092Z,9.97
2019-05-01T08:24:34.578Z,9.95
2019-05-01T08:27:03.760Z,9.90
2019-05-01T08:29:58.580Z,9.87
2019-05-01T08:32:40.792Z,9.89
2019-05-01T08:35:10.734Z,9.93
2019-05-01T08:37:42.669Z,9.95
2019-05-01T08:40:15.812Z,9.99
2019-05-01T08:42:44.240Z,10.00
2019-05-01T08:45:35.909Z,10.02
2019-05-01T08:48:21.210Z,10.01
2019-05-01T08:50:54.635Z,10.02
2019-05-01T08:53:23.258Z,10.05
2019-05-01T08:55:53.534Z,10.07
2019-05-01T08:58:23.688Z,10.13
2019-05-01T09:00:57.023Z,10.12
2019-05-01T09:03:27.340Z,10.08
2019-05-01T09:05:59.948Z,10.07
2019-05-01T09:08:33.357Z,10.10
2019-05-01T09:14:21.999Z,10.16
2019-05-01T09:17:00.399Z,10.16
2019-05-01T09:19:28.880Z,10.19
2019-05-01T09:21:58.762Z,10.14
2019-05-01T09:24:29.550Z,10.15
2019-05-01T09:27:18.803Z,10.17
2019-05-01T09:29:54.810Z,10.15
2019-05-01T09:32:28.264Z,10.16
2019-05-01T09:35:14.592Z,10.19
2019-05-01T09:37:33.202Z,10.21
2019-05-01T09:40:04.201Z,10.20
2019-05-01T09:42:34.110Z,10.20
2019-05-01T09:45:04.623Z,10.25
2019-05-01T09:47:35.121Z,10.28
2019-05-01T09:50:05.546Z,10.31
2019-05-01T09:52:43.236Z,10.30
2019-05-01T09:55:23.069Z,10.29
2019-05-01T09:57:52.679Z,10.28
2019-05-01T10:00:33.401Z,10.27
2019-05-01T10:03:02.874Z,10.28
2019-05-01T10:05:38.113Z,10.27
2019-05-01T10:08:07.030Z,10.32
2019-05-01T10:10:38.531Z,10.34
2019-05-01T10:13:09.434Z,10.37
2019-05-01T10:15:39.144Z,10.38
2019-05-01T10:18:15.996Z,10.37
2019-05-01T10:21:08.697Z,10.40
2019-05-01T10:25:08.565Z,10.43
2019-05-01T10:26:45.887Z,10.43
2019-05-01T10:29:49.931Z,10.52
2019-05-01T10:32:27.667Z,10.54
2019-05-01T10:35:22.324Z,10.66
2019-05-01T10:37:52.339Z,10.63
2019-05-01T10:40:22.410Z,10.63
2019-05-01T10:42:53.193Z,10.61
2019-05-01T10:45:23.442Z,10.62
2019-05-01T10:48:02.573Z,10.64
2019-05-01T10:50:39.318Z,10.67
2019-05-01T10:53:09.193Z,10.80
2019-05-01T10:55:58.976Z,10.87
2019-05-01T10:58:32.221Z,10.90
2019-05-01T11:01:19.535Z,10.88
2019-05-01T11:03:53.601Z,10.96
2019-05-01T11:06:34.918Z,11.08
2019-05-01T11:09:19.800Z,11.18
2019-05-01T11:11:45.236Z,11.17
2019-05-01T11:14:19.947Z,11.08
2019-05-01T11:19:48.668Z,11.03
2019-05-01T11:22:29.032Z,11.05
2019-05-01T11:25:02.610Z,11.04
2019-05-01T11:27:52.366Z,11.05
2019-05-01T11:30:19.137Z,11.08
2019-05-01T11:33:02.967Z,11.05
2019-05-01T11:36:08.875Z,11.02
2019-05-01T11:38:46.969Z,10.98
2019-05-01T11:41:25.052Z,10.92
2019-05-01T11:44:03.559Z,10.97
2019-05-01T11:46:40.632Z,10.99
2019-05-01T11:51:01.692Z,10.97
2019-05-01T11:52:39.965Z,10.91
2019-05-01T11:58:26.682Z,10.91
2019-05-01T12:01:04.837Z,10.85
2019-05-01T12:03:34.031Z,10.88
2019-05-01T12:06:03.426Z,10.88
2019-05-01T12:08:37.846Z,10.86
2019-05-01T12:11:12.162Z,10.82
2019-05-01T12:13:48.530Z,10.76
2019-05-01T12:16:41.876Z,10.81
2019-05-01T12:19:12.251Z,10.88
2019-05-01T12:21:41.784Z,10.90
2019-05-01T12:24:12.555Z,10.98
2019-05-01T12:26:50.802Z,11.02
2019-05-01T12:29:42.507Z,11.02
2019-05-01T12:32:35.758Z,11.03
2019-05-01T12:35:06.715Z,11.04
2019-05-01T12:37:56.522Z,10.99
2019-05-01T12:43:33.622Z,11.04
2019-05-01T12:49:43.370Z,11.22
2019-05-01T12:52:18.174Z,11.30
2019-05-01T12:54:56.714Z,11.29
2019-05-01T12:57:26.829Z,11.29
2019-05-01T13:00:08.190Z,11.25
2019-05-01T13:02:37.131Z,11.25
2019-05-01T13:05:07.071Z,11.25
2019-05-01T13:07:36.795Z,11.29
2019-05-01T13:10:06.457Z,10.84
2019-05-01T13:12:36.192Z,11.44
2019-05-01T13:15:08.058Z,11.59
2019-05-01T13:17:37.553Z,11.66
2019-05-01T13:20:07.205Z,11.71
2019-05-01T13:22:36.776Z,11.76
2019-05-01T13:25:06.399Z,11.76
2019-05-01T13:27:43.093Z,11.68
2019-05-01T13:30:25.535Z,11.59
2019-05-01T13:32:55.195Z,11.46
2019-05-01T13:35:30.459Z,11.40
2019-05-01T13:37:59.104Z,11.32
2019-05-01T13:40:28.383Z,11.26
2019-05-01T13:43:03.883Z,11.20
2019-05-01T13:45:33.330Z,10.41
2019-05-01T13:48:02.790Z,11.18
2019-05-01T13:50:32.108Z,11.23
2019-05-01T13:53:01.898Z,11.29
2019-05-01T13:55:31.755Z,11.23
2019-05-01T13:58:01.156Z,11.45
2019-05-01T14:00:34.451Z,11.44
2019-05-01T14:03:04.640Z,11.44
2019-05-01T14:05:36.172Z,11.50
2019-05-01T14:08:32.839Z,11.51
2019-05-01T14:11:16.579Z,11.52
2019-05-01T14:13:49.382Z,11.53
2019-05-01T14:16:19.103Z,11.51
2019-05-01T14:18:49.336Z,11.50
2019-05-01T14:21:32.583Z,11.44
2019-05-01T14:24:26.209Z,11.43
2019-05-01T14:26:55.742Z,11.31
2019-05-01T14:29:25.331Z,11.25
2019-05-01T14:31:56.182Z,11.22
2019-05-01T14:34:25.836Z,11.16
2019-05-01T14:37:00.622Z,11.16
2019-05-01T14:43:53.290Z,11.05
2019-05-01T14:46:23.966Z,11.02
2019-05-01T14:48:53.544Z,11.02
2019-05-01T14:51:31.222Z,11.03
2019-05-01T14:54:01.582Z,11.04
2019-05-01T14:56:37.680Z,11.06
2019-05-01T14:59:13.584Z,11.07
2019-05-01T15:01:47.414Z,11.06
2019-05-01T15:04:49.369Z,11.03
2019-05-01T15:07:42.837Z,11.00
2019-05-01T15:10:09.370Z,10.94
2019-05-01T15:12:46.914Z,10.95
2019-05-01T15:15:50.049Z,10.96
2019-05-01T15:18:50.971Z,10.95
2019-05-01T15:21:57.663Z,10.91
2019-05-01T15:24:44.364Z,10.88
2019-05-01T15:27:16.823Z,10.87
2019-05-01T15:29:46.671Z,10.78
2019-05-01T15:32:16.040Z,10.74
2019-05-01T15:34:45.492Z,10.69
2019-05-01T15:37:16.630Z,10.67
2019-05-01T15:39:52.300Z,10.63
2019-05-01T15:42:30.311Z,10.60
2019-05-01T15:45:00.098Z,10.55
2019-05-01T15:47:29.351Z,10.51
2019-05-01T16:19:46.880Z,10.21
2019-05-01T16:23:26.511Z,10.23
2019-05-01T16:30:36.342Z,10.17
2019-05-01T16:36:08.649Z,10.05
2019-05-01T16:38:57.647Z,10.05
2019-05-01T16:41:26.628Z,10.04
2019-05-01T16:44:40.714Z,10.02
2019-05-01T16:47:10.812Z,9.98
2019-05-01T16:49:46.116Z,9.90
2019-05-01T16:52:21.668Z,9.91
2019-05-01T16:54:59.360Z,9.90
2019-05-01T16:57:26.603Z,9.86
2019-05-01T17:00:21.692Z,9.86
2019-05-01T17:03:13.158Z,9.84
2019-05-01T17:06:13.717Z,9.81
2019-05-01T17:09:01.018Z,9.82
2019-05-01T17:11:34.472Z,9.80
2019-05-01T17:14:05.623Z,9.81
2019-05-01T17:16:38.793Z,9.82
2019-05-01T17:19:09.088Z,9.82
2019-05-01T17:21:43.323Z,9.79
2019-05-01T17:24:15.478Z,9.76
2019-05-01T17:26:53.622Z,9.75
2019-05-01T17:29:25.675Z,9.71
2019-05-01T17:31:56.143Z,9.65
2019-05-01T17:34:39.739Z,9.58
2019-05-01T17:37:24.831Z,9.56
2019-05-01T17:40:10.042Z,9.52
2019-05-01T17:42:42.986Z,9.51
2019-05-01T17:45:15.446Z,9.51
2019-05-01T17:47:59.925Z,9.50
2019-05-01T17:50:32.252Z,9.50
2019-05-01T17:53:22.013Z,9.50
2019-05-01T17:55:52.122Z,9.48
2019-05-01T17:58:25.977Z,9.47
2019-05-01T18:01:52.419Z,9.42
2019-05-01T18:04:33.166Z,9.42
2019-05-01T18:07:04.011Z,9.42
2019-05-01T18:09:35.573Z,9.43
2019-05-01T18:12:06.279Z,9.39
2019-05-01T18:14:37.484Z,9.37
2019-05-01T18:17:07.989Z,9.37
2019-05-01T18:19:38.285Z,9.36
2019-05-01T18:22:17.482Z,9.35
2019-05-01T18:25:19.180Z,9.33
2019-05-01T18:28:11.254Z,9.31
2019-05-01T18:30:43.518Z,9.31
2019-05-01T18:33:25.925Z,9.31
2019-05-01T18:35:56.025Z,9.30
2019-05-01T18:38:49.106Z,9.29
2019-05-01T18:41:33.546Z,9.26
2019-05-01T18:44:05.262Z,9.24
2019-05-01T18:46:34.224Z,9.23
2019-05-01T18:49:04.220Z,9.22
2019-05-01T18:51:36.236Z,9.24
2019-05-01T18:54:06.435Z,9.21
2019-05-01T18:56:38.246Z,9.21
2019-05-01T18:59:09.060Z,9.19
2019-05-01T19:01:43.894Z,9.24
2019-05-01T19:04:24.744Z,9.24
2019-05-01T19:06:58.920Z,9.21
2019-05-01T19:09:30.447Z,9.18
2019-05-01T19:12:07.607Z,9.19
2019-05-01T19:14:38.882Z,9.17
2019-05-01T19:17:08.591Z,9.13
2019-05-01T19:19:39.222Z,9.13
2019-05-01T19:22:09.550Z,9.13
2019-05-01T19:24:40.159Z,9.12
2019-05-01T19:27:09.930Z,9.12
2019-05-01T19:29:40.048Z,9.12
2019-05-01T19:32:10.062Z,9.08
2019-05-01T19:34:43.155Z,9.07
2019-05-01T19:37:16.462Z,9.07
2019-05-01T19:39:51.827Z,9.06
2019-05-01T19:42:21.560Z,9.05
2019-05-01T19:44:50.942Z,9.04
2019-05-01T19:47:20.740Z,9.04
2019-05-01T19:49:54.608Z,9.03
2019-05-01T19:52:24.550Z,9.04
2019-05-01T19:54:54.068Z,9.00
2019-05-01T19:57:23.907Z,8.99
2019-05-01T19:59:53.565Z,8.99
2019-05-01T20:02:24.072Z,8.96
2019-05-01T20:04:53.868Z,8.97
2019-05-01T20:07:24.037Z,8.97
2019-05-01T20:09:56.970Z,8.97
2019-05-01T20:12:25.280Z,8.96
2019-05-01T20:14:54.852Z,8.97
2019-05-01T20:17:24.584Z,8.94
2019-05-01T20:19:54.039Z,8.94
2019-05-01T20:22:23.451Z,8.94
2019-05-01T20:24:52.963Z,8.94
2019-05-01T20:27:22.860Z,8.94
2019-05-01T20:29:52.473Z,8.91
2019-05-01T20:32:26.169Z,8.90
2019-05-01T20:34:59.061Z,8.87
2019-05-01T20:37:27.274Z,8.89
2019-05-01T20:40:09.804Z,8.89
2019-05-01T20:42:29.803Z,8.84
2019-05-01T20:45:05.362Z,8.83
2019-05-01T20:47:35.183Z,8.80
2019-05-01T20:50:00.798Z,8.81
2019-05-01T20:52:29.929Z,8.77
2019-05-01T20:55:01.136Z,8.79
2019-05-01T20:57:34.256Z,8.79
2019-05-01T21:00:04.299Z,8.75
2019-05-01T21:02:33.502Z,8.74
2019-05-01T21:05:23.802Z,8.69
2019-05-01T21:08:12.231Z,8.69
2019-05-01T21:10:50.524Z,8.68
2019-05-01T21:13:23.036Z,8.69
2019-05-01T21:15:51.124Z,8.71
2019-05-01T21:18:20.824Z,8.69
2019-05-01T21:20:51.270Z,8.72
2019-05-01T21:23:20.351Z,8.70
2019-05-01T21:25:53.835Z,8.71
2019-05-01T21:28:23.991Z,8.71
2019-05-01T21:30:54.375Z,8.72
2019-05-01T21:33:24.010Z,8.68
2019-05-01T21:35:53.410Z,8.67
2019-05-01T21:38:26.880Z,8.65
2019-05-01T21:40:56.453Z,8.66
2019-05-01T21:43:27.828Z,8.63
2019-05-01T21:45:57.252Z,8.65
2019-05-01T21:48:29.691Z,8.65
2019-05-01T21:51:03.424Z,8.61
2019-05-01T21:53:37.196Z,8.61
2019-05-01T21:56:06.032Z,8.60
2019-05-01T21:58:33.970Z,8.61
2019-05-01T22:01:06.847Z,8.61
2019-05-01T22:03:36.215Z,8.59
2019-05-01T22:06:11.240Z,8.57
2019-05-01T22:08:41.106Z,8.56
2019-05-01T22:11:10.798Z,8.57
2019-05-01T22:13:39.892Z,8.58
2019-05-01T22:16:18.460Z,8.56
2019-05-01T22:18:51.530Z,8.54
2019-05-01T22:21:32.749Z,8.51
2019-05-01T22:24:22.339Z,8.52
2019-05-01T22:27:01.498Z,8.52
2019-05-01T22:29:35.755Z,8.52
2019-05-01T22:32:15.787Z,8.53
2019-05-01T22:34:52.442Z,8.52
2019-05-01T22:37:23.774Z,8.48
2019-05-01T22:39:59.663Z,8.48
2019-05-01T22:42:28.836Z,8.50
2019-05-01T22:44:58.147Z,8.47
2019-05-01T22:47:27.375Z,8.42
2019-05-01T22:49:56.805Z,8.41
2019-05-01T22:52:26.337Z,8.00
2019-05-01T22:54:56.117Z,8.40
2019-05-01T22:57:25.624Z,8.38
2019-05-01T22:59:55.100Z,8.39
2019-05-01T23:02:30.956Z,8.38
2019-05-01T23:05:00.500Z,8.36
2019-05-01T23:07:29.875Z,8.37
2019-05-01T23:10:03.250Z,8.39
2019-05-01T23:12:30.339Z,8.40
2019-05-01T23:15:00.339Z,8.40
2019-05-01T23:17:39.817Z,8.39
2019-05-01T23:20:10.678Z,8.39
2019-05-01T23:22:40.010Z,8.38
2019-05-01T23:25:09.439Z,8.38
2019-05-01T23:27:38.945Z,8.38
2019-05-01T23:30:10.046Z,8.36
2019-05-01T23:32:39.069Z,7.78
2019-05-01T23:35:08.735Z,8.36
2019-05-01T23:37:38.248Z,8.36
2019-05-01T23:40:10.970Z,8.36
2019-05-01T23:42:43.315Z,8.37
2019-05-01T23:45:11.002Z,8.36
2019-05-01T23:47:40.154Z,8.33
2019-05-01T23:50:10.495Z,8.34
2019-05-01T23:52:39.866Z,8.33
2019-05-01T23:55:12.179Z,8.32
2019-05-01T23:57:41.935Z,8.31
